< < Back
Terminal Aerodrome Forecast


Current Version              Previous Versions:   1  2  3  4  5  6  7  8  9  

Terminal Aerodrome Forecast

197
FTUS44 KBMX 031937 AAA
TAFBHM
TAF AMD
KBHM 031937Z 0320/0418 26010KT P6SM BKN040
     FM040000 21006KT P6SM BKN050
     FM040500 21010KT 3SM +TSRA BKN015CB OVC030
     FM041000 23012KT P6SM OVC040=



Latest METAR

832
SAUS70 KWBC 040300 RRB
MTRBHM
METAR KBHM 040253Z 13004KT 10SM SCT050 BKN070 BKN090 BKN150 OVC250 23/21
A3003 RMK AO2 SLP161 T02330206 53011


USA.gov is the U.S. government's official web portal to all federal, state and local government web resources and services.